Time;durP1;ratioP1;P1;durP2;ratioP2;P2;SDS_P1;SDS_P2;PMS_P1;PMS_P2;Temp;Humidity;BMP_temperature;BMP_pressure;BME280_temperature;BME280_humidity;BME280_pressure;Samples;Min_cycle;Max_cycle;Signal;HPM_P1;HPM_P2
2023/03/07 00:01:44;;;;;;;3.65;3.08;;;15.70;62.70;;;;;;10451311;28;20159;-57
2023/03/07 00:06:44;;;;;;;3.75;2.70;;;15.70;62.70;;;;;;10450122;28;20053;-56
2023/03/07 00:11:45;;;;;;;4.18;2.92;;;15.70;62.60;;;;;;10450377;28;20134;-57
2023/03/07 00:16:49;;;;;;;3.75;2.78;;;15.70;62.70;;;;;;10448680;28;20101;-58
2023/03/07 00:21:49;;;;;;;4.43;2.65;;;15.80;68.10;;;;;;10449726;28;20036;-57
2023/03/07 00:26:50;;;;;;;2.92;2.30;;;15.80;67.20;;;;;;10447737;28;20064;-57
2023/03/07 00:31:51;;;;;;;4.78;2.85;;;15.90;66.70;;;;;;10448151;28;20052;-58
2023/03/07 00:36:52;;;;;;;3.08;2.47;;;15.90;66.30;;;;;;10446777;28;20110;-57
2023/03/07 00:41:52;;;;;;;3.85;2.50;;;15.80;66.10;;;;;;10448874;28;20024;-57
2023/03/07 00:46:53;;;;;;;2.97;2.33;;;15.80;65.80;;;;;;10448863;28;20108;-57
2023/03/07 00:51:54;;;;;;;2.80;2.38;;;15.80;65.70;;;;;;10448653;28;20114;-57
2023/03/07 00:56:54;;;;;;;2.30;2.10;;;15.80;65.70;;;;;;10448383;28;20033;-57
2023/03/07 01:01:55;;;;;;;2.58;2.00;;;15.70;65.40;;;;;;10448440;28;20044;-57
2023/03/07 01:06:56;;;;;;;3.70;2.20;;;15.70;65.30;;;;;;10446640;28;20076;-57
2023/03/07 01:11:56;;;;;;;3.53;2.45;;;15.70;65.20;;;;;;10446128;28;20064;-58
2023/03/07 01:16:57;;;;;;;2.85;2.30;;;15.70;65.20;;;;;;10446194;28;20163;-58
2023/03/07 01:21:57;;;;;;;2.38;1.75;;;15.60;65.00;;;;;;10446619;28;20500;-57
2023/03/07 01:26:58;;;;;;;2.95;2.08;;;15.60;65.00;;;;;;10446254;28;20032;-57
2023/03/07 01:31:59;;;;;;;4.32;2.35;;;15.60;64.90;;;;;;10446981;28;20036;-56
2023/03/07 01:37:00;;;;;;;3.67;1.83;;;15.60;64.90;;;;;;10445802;28;20024;-56
2023/03/07 01:42:00;;;;;;;3.70;2.50;;;15.50;64.80;;;;;;10445804;28;20859;-57
2023/03/07 01:47:01;;;;;;;2.67;2.08;;;15.50;64.70;;;;;;10428476;28;20053;-56
2023/03/07 01:52:15;;;;;;;2.47;2.13;;;15.50;64.70;;;;;;10445797;28;20487;-58
2023/03/07 01:57:20;;;;;;;2.25;1.70;;;15.50;64.50;;;;;;10446981;28;20552;-56
2023/03/07 02:02:21;;;;;;;2.55;2.05;;;15.50;64.50;;;;;;10445445;28;20381;-57
2023/03/07 02:07:26;;;;;;;2.80;1.65;;;15.50;64.50;;;;;;10445148;28;20052;-57
2023/03/07 02:12:26;;;;;;;2.38;1.63;;;15.40;64.40;;;;;;10445146;28;20060;-59
2023/03/07 02:17:27;;;;;;;3.97;2.28;;;15.40;64.30;;;;;;10446359;28;20028;-56
2023/03/07 02:22:28;;;;;;;3.22;2.35;;;15.40;64.30;;;;;;10444938;28;20108;-58
2023/03/07 02:27:32;;;;;;;2.25;1.80;;;15.40;64.40;;;;;;10445122;28;20013;-57
2023/03/07 02:32:32;;;;;;;4.18;2.47;;;15.40;64.30;;;;;;10444663;28;20025;-57
2023/03/07 02:37:37;;;;;;;4.22;1.95;;;15.40;64.20;;;;;;10427969;28;20739;-57
2023/03/07 02:42:41;;;;;;;2.85;1.80;;;15.40;64.20;;;;;;10444212;28;20119;-57
2023/03/07 02:47:42;;;;;;;2.10;1.63;;;15.30;64.00;;;;;;10444514;28;20401;-57
2023/03/07 02:52:43;;;;;;;2.05;1.42;;;15.30;64.00;;;;;;10432759;28;20029;-57
2023/03/07 02:57:44;;;;;;;3.97;1.70;;;15.30;64.00;;;;;;10443610;28;20017;-57
2023/03/07 03:02:45;;;;;;;2.38;1.90;;;15.30;63.90;;;;;;10451391;28;20107;-57
2023/03/07 03:07:45;;;;;;;2.72;1.75;;;15.30;63.90;;;;;;10452682;28;20044;-56
2023/03/07 03:12:46;;;;;;;2.58;1.60;;;15.30;63.80;;;;;;10451547;28;20052;-58
2023/03/07 03:17:47;;;;;;;2.20;1.55;;;15.30;63.80;;;;;;10452969;28;20010;-57
2023/03/07 03:22:51;;;;;;;1.83;1.33;;;15.20;63.70;;;;;;10451326;28;20021;-58
2023/03/07 03:27:52;;;;;;;2.80;1.38;;;15.20;63.70;;;;;;10451368;28;20417;-58
2023/03/07 03:32:55;;;;;;;2.40;1.73;;;15.20;63.70;;;;;;10450616;28;20496;-57
2023/03/07 03:37:56;;;;;;;2.78;2.03;;;15.20;63.50;;;;;;10451683;28;20071;-57
2023/03/07 03:42:57;;;;;;;1.95;1.05;;;15.40;63.20;;;;;;10433735;28;20021;-57
2023/03/07 03:47:57;;;;;;;2.15;1.10;;;15.60;62.60;;;;;;10450146;28;20048;-57
2023/03/07 03:53:00;;;;;;;2.30;1.63;;;15.80;62.00;;;;;;10466603;28;20116;-57
2023/03/07 03:58:01;;;;;;;2.45;1.58;;;15.90;61.40;;;;;;10449713;28;20025;-57
2023/03/07 04:03:02;;;;;;;1.52;1.00;;;16.00;61.10;;;;;;10450704;28;20063;-57
2023/03/07 04:08:03;;;;;;;1.73;1.00;;;16.10;60.80;;;;;;10449532;28;20041;-57
2023/03/07 04:13:03;;;;;;;2.35;1.63;;;16.20;60.80;;;;;;10450099;28;20033;-57
2023/03/07 04:18:04;;;;;;;2.17;1.05;;;16.10;60.70;;;;;;10450356;28;20047;-57
2023/03/07 04:23:05;;;;;;;2.58;1.23;;;16.10;60.80;;;;;;10450177;28;20029;-57
2023/03/07 04:28:05;;;;;;;1.40;0.85;;;16.10;60.70;;;;;;10449799;28;20112;-57
2023/03/07 04:33:06;;;;;;;3.05;1.30;;;16.10;60.70;;;;;;10465186;28;20081;-57
2023/03/07 04:38:07;;;;;;;2.60;1.27;;;16.10;60.70;;;;;;10449551;28;20131;-56
2023/03/07 04:43:08;;;;;;;1.92;1.45;;;16.20;60.60;;;;;;10421274;28;20404;-57
2023/03/07 04:48:09;;;;;;;2.50;1.50;;;16.10;61.20;;;;;;10446123;28;20081;-57
2023/03/07 04:53:09;;;;;;;2.58;1.17;;;16.10;61.50;;;;;;10448153;28;20124;-55
2023/03/07 04:58:12;;;;;;;4.82;1.20;;;16.10;61.80;;;;;;10446622;28;20082;-56
2023/03/07 05:03:13;;;;;;;2.65;1.10;;;16.00;62.10;;;;;;10446459;28;20492;-56
2023/03/07 05:08:14;;;;;;;4.65;1.38;;;16.00;62.40;;;;;;10447266;28;20404;-57
2023/03/07 05:13:15;;;;;;;2.97;0.98;;;15.90;62.50;;;;;;10446330;28;20064;-57
2023/03/07 05:18:15;;;;;;;3.25;1.30;;;15.90;62.50;;;;;;10445069;28;20021;-56
2023/03/07 05:23:18;;;;;;;2.58;0.90;;;15.80;62.30;;;;;;10447083;28;20096;-56
2023/03/07 05:28:18;;;;;;;2.38;1.10;;;15.80;62.30;;;;;;10446181;28;20645;-58
2023/03/07 05:33:19;;;;;;;2.33;1.10;;;15.80;62.40;;;;;;10445733;28;20120;-58
2023/03/07 05:38:20;;;;;;;2.80;0.82;;;15.70;62.30;;;;;;10436242;28;20068;-57
2023/03/07 05:43:21;;;;;;;2.90;1.10;;;15.80;62.20;;;;;;10446739;28;20029;-58
2023/03/07 05:48:21;;;;;;;1.55;0.90;;;15.80;61.90;;;;;;10446172;28;20686;-57
2023/03/07 05:53:22;;;;;;;2.17;1.30;;;15.80;61.60;;;;;;10442267;28;20741;-57
2023/03/07 05:58:22;;;;;;;3.60;0.90;;;15.90;61.40;;;;;;10437137;28;20057;-56
2023/03/07 06:03:23;;;;;;;3.42;1.52;;;15.90;61.30;;;;;;10444572;28;20061;-56
2023/03/07 06:08:24;;;;;;;3.65;1.30;;;16.00;61.40;;;;;;10444826;28;20170;-57
2023/03/07 06:13:25;;;;;;;13.57;2.47;;;16.10;62.10;;;;;;10444784;28;20370;-56
2023/03/07 06:18:26;;;;;;;9.23;1.33;;;16.20;62.60;;;;;;10445176;28;20515;-56
2023/03/07 06:23:30;;;;;;;23.88;2.85;;;16.20;63.00;;;;;;10445886;28;20102;-56
2023/03/07 06:28:30;;;;;;;17.70;2.30;;;16.20;62.20;;;;;;10443171;28;20411;-55
2023/03/07 06:33:31;;;;;;;14.07;1.95;;;16.20;62.80;;;;;;10446470;28;20091;-56
2023/03/07 06:38:32;;;;;;;10.82;1.90;;;16.10;62.30;;;;;;10454241;28;20106;-55
2023/03/07 06:43:33;;;;;;;18.45;3.20;;;16.00;62.60;;;;;;10453867;28;20028;-55
2023/03/07 06:48:34;;;;;;;29.60;3.28;;;16.00;62.50;;;;;;10453678;28;20356;-55
2023/03/07 06:53:35;;;;;;;16.15;2.40;;;16.00;62.60;;;;;;10449694;28;20048;-56
2023/03/07 06:58:35;;;;;;;16.88;2.08;;;15.80;62.50;;;;;;10463003;28;20061;-56
2023/03/07 07:03:36;;;;;;;15.95;2.00;;;15.80;62.90;;;;;;10449514;28;20503;-54
2023/03/07 07:08:37;;;;;;;11.77;1.95;;;15.80;62.20;;;;;;10449884;28;20175;-54
2023/03/07 07:13:38;;;;;;;12.07;2.38;;;15.70;62.00;;;;;;10445923;28;20021;-55
2023/03/07 07:18:38;;;;;;;10.35;2.33;;;15.70;62.10;;;;;;10447107;28;20055;-55
2023/03/07 07:23:39;;;;;;;7.30;1.42;;;15.70;62.10;;;;;;10449824;28;20774;-55
2023/03/07 07:28:40;;;;;;;13.43;2.40;;;15.80;61.80;;;;;;10445129;28;20537;-55
2023/03/07 07:33:41;;;;;;;7.18;1.50;;;15.70;61.60;;;;;;10449468;28;20037;-55
2023/03/07 07:38:41;;;;;;;10.82;1.50;;;15.80;61.60;;;;;;10450674;28;20432;-55
2023/03/07 07:43:45;;;;;;;10.27;2.40;;;15.80;61.40;;;;;;10450756;28;20033;-54
2023/03/07 07:48:46;;;;;;;8.02;1.67;;;15.90;61.40;;;;;;10450335;28;20024;-56
2023/03/07 07:53:47;;;;;;;11.07;1.80;;;15.90;62.00;;;;;;10446256;28;20100;-56
2023/03/07 07:58:48;;;;;;;16.02;1.48;;;15.90;61.40;;;;;;10433787;28;20024;-56
2023/03/07 08:03:48;;;;;;;6.60;1.38;;;15.80;61.50;;;;;;10467173;28;20124;-56
2023/03/07 08:08:50;;;;;;;5.85;1.23;;;15.80;61.40;;;;;;10449943;28;20037;-57
2023/03/07 08:13:51;;;;;;;7.68;1.33;;;15.80;61.20;;;;;;10450074;28;20025;-55
2023/03/07 08:18:56;;;;;;;7.32;1.67;;;15.80;61.30;;;;;;10425313;28;20095;-55
2023/03/07 08:23:56;;;;;;;5.65;1.60;;;15.70;61.20;;;;;;10458565;28;20111;-56
2023/03/07 08:28:57;;;;;;;6.30;1.50;;;15.80;61.10;;;;;;10440111;28;20388;-56
2023/03/07 08:33:58;;;;;;;3.25;0.90;;;15.80;60.80;;;;;;10453845;28;20029;-55
2023/03/07 08:38:59;;;;;;;3.47;1.02;;;15.80;60.60;;;;;;10445330;28;20064;-56
2023/03/07 08:43:59;;;;;;;5.95;1.13;;;15.90;60.50;;;;;;10457813;28;20115;-57
2023/03/07 08:49:00;;;;;;;2.97;0.68;;;15.90;60.30;;;;;;10455048;28;20025;-56
2023/03/07 08:54:01;;;;;;;7.13;1.48;;;15.90;60.20;;;;;;10461281;28;20028;-55
2023/03/07 08:59:02;;;;;;;3.95;1.13;;;15.90;60.30;;;;;;10436939;28;20041;-56
2023/03/07 09:04:03;;;;;;;3.60;0.90;;;15.80;60.40;;;;;;10456739;28;20033;-56
2023/03/07 09:09:04;;;;;;;2.15;0.60;;;15.80;60.20;;;;;;10452942;28;20041;-57
2023/03/07 09:14:05;;;;;;;4.85;1.25;;;15.80;60.10;;;;;;10449600;28;20029;-56
2023/03/07 09:19:06;;;;;;;6.03;0.90;;;15.80;60.10;;;;;;10427157;28;20017;-56
2023/03/07 09:24:07;;;;;;;2.15;0.60;;;15.80;60.10;;;;;;10444746;28;20652;-56
2023/03/07 09:29:08;;;;;;;4.07;1.10;;;15.80;60.00;;;;;;10440931;28;20112;-56
2023/03/07 09:34:10;;;;;;;2.45;0.60;;;15.90;59.90;;;;;;10434496;28;20025;-55
2023/03/07 09:39:13;;;;;;;2.58;0.68;;;15.80;60.50;;;;;;10429676;28;20070;-55
2023/03/07 09:44:43;;;;;;;2.45;0.60;;;15.80;59.90;;;;;;10427867;28;20380;-55
2023/03/07 09:49:50;;;;;;;3.17;1.92;;;15.90;59.90;;;;;;10437123;28;20031;-55
2023/03/07 09:54:58;;;;;;;2.95;0.55;;;15.90;59.70;;;;;;10422995;28;20039;-56
2023/03/07 10:00:02;;;;;;;4.35;0.73;;;15.90;59.90;;;;;;10438937;28;20101;-57
2023/03/07 10:05:26;;;;;;;1.65;0.73;;;15.80;59.80;;;;;;10429807;28;20456;-56
2023/03/07 10:10:40;;;;;;;2.88;0.60;;;15.80;59.90;;;;;;10449331;28;20080;-57
2023/03/07 10:15:52;;;;;;;3.10;1.00;;;15.80;59.80;;;;;;10427595;28;20076;-55
2023/03/07 10:21:18;;;;;;;1.52;0.60;;;15.80;59.90;;;;;;10433478;28;20021;-57
2023/03/07 10:26:34;;;;;;;1.67;0.60;;;15.70;59.90;;;;;;10436822;28;20033;-56
2023/03/07 10:31:41;;;;;;;3.00;0.65;;;15.70;59.90;;;;;;10439081;28;20753;-56
2023/03/07 10:36:48;;;;;;;0.77;0.47;;;15.80;59.60;;;;;;10435453;28;20104;-57
2023/03/07 10:41:48;;;;;;;1.65;0.73;;;15.80;59.40;;;;;;10434351;28;20606;-56
2023/03/07 10:46:57;;;;;;;2.42;0.60;;;15.80;59.50;;;;;;10437584;28;20032;-56
2023/03/07 10:52:31;;;;;;;1.00;0.53;;;15.80;59.60;;;;;;10441465;28;20029;-55
2023/03/07 10:57:32;;;;;;;1.30;0.40;;;15.90;59.50;;;;;;10452945;28;20022;-56
2023/03/07 11:02:46;;;;;;;2.03;0.40;;;15.90;59.50;;;;;;10448105;28;20100;-56
2023/03/07 11:07:46;;;;;;;1.27;0.50;;;15.80;59.50;;;;;;10434137;28;20607;-56
2023/03/07 11:12:47;;;;;;;3.83;0.75;;;15.80;59.60;;;;;;10428525;28;20126;-55
2023/03/07 11:17:49;;;;;;;0.70;0.50;;;15.90;60.30;;;;;;10443265;28;20358;-57
2023/03/07 11:23:12;;;;;;;0.85;0.40;;;15.90;60.20;;;;;;10448214;28;20021;-56
2023/03/07 11:28:34;;;;;;;1.60;0.60;;;16.00;60.70;;;;;;10450407;28;20025;-57
2023/03/07 11:34:13;;;;;;;1.88;0.50;;;15.90;60.60;;;;;;10431562;28;20032;-56
2023/03/07 11:39:55;;;;;;;3.10;0.65;;;15.90;60.30;;;;;;10446073;28;20036;-57
2023/03/07 11:45:30;;;;;;;3.30;0.57;;;15.80;60.50;;;;;;10449304;28;20107;-57
2023/03/07 11:50:33;;;;;;;1.35;0.30;;;15.80;60.20;;;;;;10430109;28;20018;-55
2023/03/07 11:55:55;;;;;;;2.20;0.68;;;15.80;60.20;;;;;;10431397;28;20028;-56
2023/03/07 12:01:36;;;;;;;1.23;0.52;;;15.70;60.20;;;;;;10448552;28;20028;-57
2023/03/07 12:07:13;;;;;;;1.00;0.45;;;15.80;59.90;;;;;;10448633;28;20056;-57
2023/03/07 12:12:55;;;;;;;2.67;0.70;;;15.80;60.00;;;;;;10449683;28;20037;-57
2023/03/07 12:18:31;;;;;;;2.25;0.40;;;15.70;59.90;;;;;;10442941;28;20587;-55
2023/03/07 12:23:58;;;;;;;0.70;0.50;;;15.70;59.80;;;;;;10447966;28;20028;-58
2023/03/07 12:29:11;;;;;;;5.20;1.35;;;15.70;60.50;;;;;;10430477;28;20066;-57
2023/03/07 12:34:22;;;;;;;1.90;0.52;;;15.80;60.20;;;;;;10446912;28;20075;-56
2023/03/07 12:39:52;;;;;;;3.75;0.70;;;15.90;59.90;;;;;;10431577;28;20342;-56
2023/03/07 12:45:15;;;;;;;2.20;0.40;;;15.90;59.80;;;;;;10448089;28;20029;-54
2023/03/07 12:50:48;;;;;;;1.98;0.88;;;15.90;59.70;;;;;;10445160;28;20025;-56
2023/03/07 12:55:59;;;;;;;2.92;0.55;;;15.90;60.00;;;;;;10448063;28;20703;-55
2023/03/07 13:01:14;;;;;;;3.22;1.63;;;15.80;60.10;;;;;;10446741;28;20079;-55
2023/03/07 13:06:19;;;;;;;1.50;0.50;;;15.90;59.60;;;;;;10437509;28;20132;-54
2023/03/07 13:11:23;;;;;;;1.98;0.47;;;16.00;59.40;;;;;;10446538;28;20021;-56
2023/03/07 13:16:42;;;;;;;12.27;1.42;;;16.00;59.50;;;;;;10431812;28;20108;-57
2023/03/07 13:21:42;;;;;;;13.68;1.67;;;15.90;60.30;;;;;;10446139;28;20051;-54
2023/03/07 13:26:44;;;;;;;12.48;2.55;;;15.90;60.30;;;;;;10445720;28;20577;-56
2023/03/07 13:31:45;;;;;;;10.00;1.20;;;16.00;60.20;;;;;;10445951;28;20033;-56
2023/03/07 13:36:45;;;;;;;6.75;1.33;;;16.00;60.10;;;;;;10447323;28;20423;-55
2023/03/07 13:41:50;;;;;;;7.53;1.30;;;15.80;60.30;;;;;;10445347;28;20025;-56
2023/03/07 13:46:54;;;;;;;17.63;3.58;;;16.00;60.70;;;;;;10438892;28;20372;-55
2023/03/07 13:52:17;;;;;;;15.75;2.35;;;16.30;60.10;;;;;;10416044;28;20615;-55
2023/03/07 13:57:22;;;;;;;19.73;3.15;;;16.60;59.40;;;;;;10444698;28;20029;-55
2023/03/07 14:02:23;;;;;;;17.33;2.45;;;16.70;59.40;;;;;;10445004;28;20112;-56
2023/03/07 14:07:30;;;;;;;9.70;1.70;;;16.80;59.20;;;;;;10444460;28;20037;-56
2023/03/07 14:13:24;;;;;;;13.02;2.40;;;16.90;59.60;;;;;;10431916;28;20036;-54
2023/03/07 14:18:59;;;;;;;25.23;3.63;;;16.80;59.30;;;;;;10446064;28;20021;-57
2023/03/07 14:24:41;;;;;;;13.73;2.55;;;16.70;59.50;;;;;;10436320;28;20021;-55
2023/03/07 14:29:55;;;;;;;15.88;3.28;;;16.70;59.50;;;;;;10445711;28;20021;-55
2023/03/07 14:34:57;;;;;;;18.02;3.28;;;16.70;59.50;;;;;;10444496;28;20032;-56
2023/03/07 14:39:58;;;;;;;14.85;2.50;;;16.60;59.60;;;;;;10442302;28;20017;-56
2023/03/07 14:45:31;;;;;;;11.27;1.70;;;16.60;59.70;;;;;;10439364;28;20032;-56
2023/03/07 14:50:32;;;;;;;10.05;1.65;;;16.50;59.30;;;;;;10450934;28;20090;-56
2023/03/07 14:55:42;;;;;;;6.78;1.40;;;16.60;59.20;;;;;;10445383;28;20017;-56
2023/03/07 15:00:42;;;;;;;10.27;1.70;;;16.50;59.10;;;;;;10466895;28;20040;-56
2023/03/07 15:05:54;;;;;;;10.57;1.58;;;16.60;58.70;;;;;;10434168;28;20055;-56
2023/03/07 15:11:29;;;;;;;9.43;1.50;;;16.60;58.60;;;;;;10446541;28;20029;-56
2023/03/07 15:16:38;;;;;;;10.20;1.60;;;16.60;58.50;;;;;;10446542;28;20086;-57
2023/03/07 15:21:59;;;;;;;12.35;1.77;;;16.60;58.60;;;;;;10447804;28;20021;-58
2023/03/07 15:27:01;;;;;;;31.92;2.92;;;16.50;58.80;;;;;;10448717;28;20032;-57
2023/03/07 15:32:06;;;;;;;27.52;4.45;;;16.50;59.40;;;;;;10450769;28;20037;-57
2023/03/07 15:37:23;;;;;;;33.92;4.50;;;16.60;59.60;;;;;;10450642;28;20017;-58
2023/03/07 15:42:24;;;;;;;36.15;4.50;;;16.60;59.80;;;;;;10452135;28;20031;-54
2023/03/07 15:47:27;;;;;;;30.55;4.70;;;16.70;59.90;;;;;;10446567;28;20687;-56
2023/03/07 15:52:31;;;;;;;24.70;3.72;;;16.50;59.80;;;;;;10445328;28;20044;-55
2023/03/07 15:57:52;;;;;;;27.45;2.65;;;16.60;59.20;;;;;;10445825;28;20124;-55
2023/03/07 16:03:05;;;;;;;13.93;2.80;;;16.60;59.00;;;;;;10447077;28;20021;-56
2023/03/07 16:08:13;;;;;;;15.93;2.65;;;16.60;58.90;;;;;;10445978;28;20527;-55
2023/03/07 16:13:17;;;;;;;10.75;3.03;;;16.60;58.80;;;;;;10447157;28;20037;-56
2023/03/07 16:18:25;;;;;;;13.80;2.83;;;16.50;58.80;;;;;;10445251;28;20087;-57
2023/03/07 16:23:29;;;;;;;14.32;1.98;;;16.60;58.60;;;;;;10446499;28;20171;-57
2023/03/07 16:28:30;;;;;;;10.07;1.65;;;16.60;58.40;;;;;;10446365;28;20679;-55
2023/03/07 16:33:31;;;;;;;9.45;2.30;;;16.50;58.40;;;;;;10429630;28;20043;-57
2023/03/07 16:38:32;;;;;;;8.90;2.05;;;16.60;58.30;;;;;;10447176;28;20041;-57
2023/03/07 16:43:36;;;;;;;17.23;3.40;;;16.40;58.90;;;;;;10439034;28;20027;-56
2023/03/07 16:48:37;;;;;;;19.85;3.30;;;16.30;59.40;;;;;;10439963;28;20516;-55
2023/03/07 16:53:38;;;;;;;19.55;3.42;;;16.30;59.30;;;;;;10461291;28;20132;-57
2023/03/07 16:58:39;;;;;;;43.92;5.50;;;16.40;59.30;;;;;;10445099;28;20013;-57
2023/03/07 17:03:41;;;;;;;16.63;3.28;;;16.40;59.50;;;;;;10444522;28;20032;-56
2023/03/07 17:08:43;;;;;;;15.70;3.13;;;16.80;64.70;;;;;;10444429;28;20447;-54
2023/03/07 17:13:46;;;;;;;18.80;2.58;;;17.00;63.20;;;;;;10446488;28;20064;-54
2023/03/07 17:18:47;;;;;;;14.30;2.63;;;17.00;63.60;;;;;;10443670;28;20032;-57
2023/03/07 17:23:49;;;;;;;13.25;2.42;;;16.90;62.70;;;;;;10444577;28;20245;-58
2023/03/07 17:28:50;;;;;;;14.73;3.22;;;16.90;62.70;;;;;;10444481;28;20025;-58
2023/03/07 17:33:50;;;;;;;12.48;3.35;;;16.90;61.90;;;;;;10451195;28;20025;-57
2023/03/07 17:38:51;;;;;;;15.18;2.42;;;16.80;61.60;;;;;;10443567;28;20025;-57
2023/03/07 17:43:52;;;;;;;15.73;3.38;;;16.80;61.30;;;;;;10442416;28;20025;-59
2023/03/07 17:48:52;;;;;;;19.52;3.90;;;16.80;61.10;;;;;;10450345;28;20045;-59
2023/03/07 17:53:53;;;;;;;13.73;2.25;;;16.90;61.40;;;;;;10443105;28;20806;-58
2023/03/07 17:58:54;;;;;;;17.52;3.08;;;16.80;61.60;;;;;;10442028;28;20037;-58
2023/03/07 18:03:56;;;;;;;14.00;1.85;;;16.60;61.80;;;;;;10442303;28;20096;-59
2023/03/07 18:08:57;;;;;;;19.27;2.95;;;16.70;62.20;;;;;;10441530;28;20182;-58
2023/03/07 18:13:58;;;;;;;18.48;3.10;;;16.60;61.90;;;;;;10434498;28;20557;-58
2023/03/07 18:18:58;;;;;;;14.07;2.13;;;16.50;62.10;;;;;;10425847;28;20681;-59
2023/03/07 18:23:59;;;;;;;23.77;3.08;;;16.40;62.20;;;;;;10433375;28;20060;-60
2023/03/07 18:29:00;;;;;;;14.68;2.30;;;16.30;62.30;;;;;;10428683;28;20017;-59
2023/03/07 18:34:03;;;;;;;14.25;2.42;;;16.20;62.20;;;;;;10422850;28;20033;-59
2023/03/07 18:39:04;;;;;;;7.78;1.55;;;16.30;62.20;;;;;;10456586;28;20503;-58
2023/03/07 18:44:04;;;;;;;9.30;1.83;;;16.40;61.90;;;;;;10419043;28;20025;-58
2023/03/07 18:49:05;;;;;;;10.00;2.10;;;16.40;61.60;;;;;;10438087;28;20250;-60
2023/03/07 18:54:07;;;;;;;9.25;1.48;;;16.50;61.30;;;;;;10442407;28;20119;-58
2023/03/07 18:59:09;;;;;;;8.20;2.03;;;16.60;60.80;;;;;;10441985;28;20017;-58
2023/03/07 19:04:10;;;;;;;6.82;1.88;;;16.60;60.70;;;;;;10460425;28;20108;-57
2023/03/07 19:09:15;;;;;;;7.55;1.70;;;16.60;60.40;;;;;;10412224;28;20075;-58
2023/03/07 19:14:15;;;;;;;9.38;1.70;;;16.60;60.20;;;;;;10420437;28;20372;-60
2023/03/07 19:19:16;;;;;;;8.48;1.92;;;16.60;60.10;;;;;;10430820;28;20106;-60
2023/03/07 19:24:17;;;;;;;4.80;1.60;;;16.60;60.10;;;;;;10428645;28;20461;-61
2023/03/07 19:29:17;;;;;;;7.55;1.67;;;16.60;60.10;;;;;;10409373;28;20113;-60
2023/03/07 19:34:18;;;;;;;4.65;1.17;;;16.60;60.00;;;;;;10425962;28;20123;-59
2023/03/07 19:39:19;;;;;;;5.43;1.00;;;16.60;60.00;;;;;;10422858;28;20096;-59
2023/03/07 19:44:20;;;;;;;8.40;1.52;;;16.60;60.20;;;;;;10433197;28;20100;-60
2023/03/07 19:49:22;;;;;;;4.60;1.13;;;16.60;60.00;;;;;;10432537;28;20029;-59
2023/03/07 19:54:22;;;;;;;6.90;1.25;;;16.60;59.90;;;;;;10427273;28;20061;-60
2023/03/07 19:59:23;;;;;;;15.35;2.42;;;16.60;59.80;;;;;;10421135;28;20104;-60
2023/03/07 20:04:24;;;;;;;5.55;1.45;;;16.60;59.90;;;;;;10431266;28;20041;-59
2023/03/07 20:09:24;;;;;;;3.60;0.90;;;16.60;59.70;;;;;;10442984;28;20135;-60
2023/03/07 20:14:25;;;;;;;5.95;1.75;;;16.50;59.80;;;;;;10446486;28;20559;-60
2023/03/07 20:19:26;;;;;;;4.03;1.02;;;16.60;59.70;;;;;;10442020;28;20067;-59
2023/03/07 20:24:28;;;;;;;6.63;1.55;;;16.60;59.60;;;;;;10431195;28;20452;-58
2023/03/07 20:29:29;;;;;;;3.92;1.08;;;16.60;59.40;;;;;;10443270;28;20098;-59
2023/03/07 20:34:30;;;;;;;3.53;0.80;;;16.50;59.40;;;;;;10444612;28;20127;-60
2023/03/07 20:39:30;;;;;;;2.47;0.90;;;16.50;59.90;;;;;;10427328;28;20486;-59
2023/03/07 20:44:31;;;;;;;3.83;1.17;;;16.40;60.20;;;;;;10441283;28;20061;-58
2023/03/07 20:49:32;;;;;;;3.17;1.13;;;16.20;60.20;;;;;;10442145;28;20488;-57
2023/03/07 20:54:32;;;;;;;4.68;1.33;;;16.20;60.40;;;;;;10443182;28;20484;-58
2023/03/07 20:59:33;;;;;;;5.00;1.42;;;16.00;60.60;;;;;;10441835;28;20711;-58
2023/03/07 21:04:34;;;;;;;4.93;1.10;;;16.00;60.80;;;;;;10439983;28;20063;-59
2023/03/07 21:09:35;;;;;;;3.22;1.02;;;15.90;61.10;;;;;;10440607;28;20073;-57
2023/03/07 21:14:35;;;;;;;4.22;0.90;;;15.80;61.80;;;;;;10436450;28;20036;-59
2023/03/07 21:19:36;;;;;;;3.05;1.30;;;15.80;61.30;;;;;;10443528;28;20021;-58
2023/03/07 21:24:37;;;;;;;2.53;1.00;;;15.70;61.30;;;;;;10443708;28;20024;-59
2023/03/07 21:29:37;;;;;;;1.52;0.93;;;15.60;61.20;;;;;;10446288;28;20036;-59
2023/03/07 21:34:38;;;;;;;2.25;0.93;;;15.60;61.20;;;;;;10442691;28;20429;-59
2023/03/07 21:39:39;;;;;;;2.97;1.75;;;15.50;61.30;;;;;;10447192;28;20040;-60
2023/03/07 21:44:40;;;;;;;1.38;1.00;;;15.50;61.40;;;;;;10445896;28;20053;-60
2023/03/07 21:49:41;;;;;;;2.60;0.85;;;15.40;61.30;;;;;;10432710;28;20049;-60
2023/03/07 21:54:41;;;;;;;2.47;1.25;;;15.30;61.50;;;;;;10445643;28;20114;-59
2023/03/07 21:59:42;;;;;;;1.90;0.75;;;15.30;61.60;;;;;;10446404;28;20048;-59
2023/03/07 22:04:43;;;;;;;2.55;1.10;;;15.20;61.60;;;;;;10446268;28;20104;-59
2023/03/07 22:09:43;;;;;;;2.53;1.15;;;15.20;61.60;;;;;;10445394;28;20072;-61
2023/03/07 22:14:45;;;;;;;2.05;1.00;;;15.20;61.70;;;;;;10444773;28;20124;-60
2023/03/07 22:19:46;;;;;;;1.98;1.25;;;15.10;61.50;;;;;;10428237;28;20025;-59
2023/03/07 22:24:51;;;;;;;2.33;1.13;;;15.10;61.50;;;;;;10445854;28;20055;-59
2023/03/07 22:29:51;;;;;;;4.95;1.90;;;15.00;61.30;;;;;;10445016;28;20021;-60
2023/03/07 22:34:52;;;;;;;2.60;1.10;;;15.10;61.20;;;;;;10444749;28;20118;-60
2023/03/07 22:39:53;;;;;;;1.83;0.90;;;15.00;61.40;;;;;;10444372;28;20096;-59
2023/03/07 22:44:54;;;;;;;2.45;1.90;;;15.00;61.40;;;;;;10445860;28;20120;-60
2023/03/07 22:49:54;;;;;;;2.38;0.90;;;14.90;61.40;;;;;;10444838;28;20017;-60
2023/03/07 22:54:55;;;;;;;4.47;0.80;;;14.90;61.20;;;;;;10444517;28;20108;-60
2023/03/07 22:59:56;;;;;;;1.50;0.88;;;14.90;60.80;;;;;;10444286;28;20025;-60
2023/03/07 23:04:57;;;;;;;1.30;0.80;;;14.90;60.70;;;;;;10444027;28;20104;-59
2023/03/07 23:09:57;;;;;;;3.67;1.27;;;14.90;60.60;;;;;;10443828;28;20088;-59
2023/03/07 23:14:58;;;;;;;2.30;0.90;;;14.80;60.70;;;;;;10440320;28;20436;-60
2023/03/07 23:19:58;;;;;;;2.35;1.13;;;14.80;60.40;;;;;;10452701;28;20048;-60
2023/03/07 23:24:59;;;;;;;1.70;0.88;;;14.80;60.40;;;;;;10435184;28;20052;-58
2023/03/07 23:30:00;;;;;;;3.65;0.98;;;14.80;61.10;;;;;;10451015;28;20032;-61
2023/03/07 23:35:01;;;;;;;2.22;1.20;;;14.80;60.40;;;;;;10450458;28;20124;-59
2023/03/07 23:40:02;;;;;;;1.92;0.98;;;14.70;60.50;;;;;;10450800;28;20021;-59
2023/03/07 23:45:03;;;;;;;2.17;0.95;;;14.70;60.60;;;;;;10425580;28;20399;-60
2023/03/07 23:50:05;;;;;;;1.52;0.85;;;14.70;60.70;;;;;;10443667;28;20017;-60
2023/03/07 23:55:07;;;;;;;2.05;1.27;;;14.70;60.50;;;;;;10450271;28;20021;-60
